Adams, NE

10:31 PM CDT on May 29, 2015 (GMT -0500)
Nebraska City Municipal | | Change Station
CLOSE
Current Station
Airport
Location: Nebraska City,
Elevation: 1161 ft
Nearby Weather Stations

Elev 1161 ft 40.61 °N, 95.86 °W | Updated 16 minutes ago

Overcast
Overcast
63 °F
Feels Like 63 °F
N
16
Wind Variable Wind from NNW
Gusts 28 mph

Today
High -- | Low -- °F
--% Chance of Precip.
Yesterday
High -- | Low -- °F
Precip. -- in
5:59 AM 8:47 PM
Waxing Gibbous, 87% visible
Pressure 30.01 in
Visibility 7.0 miles
Clouds Overcast 1100 ft
Dew Point 62 °F
Humidity 97%
Rainfall 0.86 in
Snow Depth Not available.
UV 0 out of 12
Pollen .80 out of 12
Air Quality Not available.
Flu Activity No Activity
METAR KAFK 300315Z AUTO 34014G24KT 7SM RA OVC011 17/17 A3001 RMK AO2 LTG DSNT SE AND S P0001 T01700165

More Conditions Fewer Conditions

Pressure 30.01 in
Visibility 7.0 miles
Clouds Overcast 1100 ft
Dew Point 62 °F
Humidity 97%
Rainfall 0.86 in
Snow Depth Not available.
UV 0 out of 12
Pollen .80 out of 12
Air Quality Not available.
Flu Activity No Activity
METAR KAFK 300315Z AUTO 34014G24KT 7SM RA OVC011 17/17 A3001 RMK AO2 LTG DSNT SE AND S P0001 T01700165

More Conditions Fewer Conditions

10-Day Weather Forecast

Almanac

Astronomy

May. 29, 2015 Rise Set
Actual Time
Civil Twilight
Nautical Twilight
Astronomical Twilight
Moon
Length of Visible Light
Length of Day
Tomorrow will be .
, % of the Moon is Illuminated

Today's Extremes

State Highs State Lows

Community

WunderPhotos

Upload Photos

1,825,441 photos uploaded!

WunderBlogs® & News

Nearby

Air Quality

  Air Quality AQ Index Pollutant
Not available.

Snow Depth

Station Depth Elevation

Earthquake Activity

City Distance Mag. Time & Date
Minimum magnitude displayed is 2.5.

Coastal Water Temperatures

Place Temperature

Stations

Nearby Weather Stations

Station Location Temp. Windchill Dew Point Humidity Wind Precip. Elev Updated Type